createdAt,value
2023-05-18T00:06:03.050Z,5.6753
2023-05-18T00:07:04.896Z,5.7689
2023-05-18T00:08:09.761Z,5.7813
2023-05-18T00:09:09.488Z,5.8035
2023-05-18T00:10:11.406Z,6.1304
2023-05-18T00:11:13.256Z,5.9565
2023-05-18T00:12:15.781Z,5.9388
2023-05-18T00:13:18.696Z,5.9349
2023-05-18T00:14:21.236Z,5.8361
2023-05-18T00:15:23.134Z,5.9044
2023-05-18T00:17:27.909Z,5.7111
2023-05-18T00:18:29.792Z,5.6582
2023-05-18T00:19:31.657Z,5.5344
2023-05-18T00:20:33.957Z,5.5625
2023-05-18T00:21:35.906Z,5.4829
2023-05-18T00:22:37.790Z,5.6812
2023-05-18T00:23:40.233Z,5.6441
2023-05-18T00:24:42.920Z,5.6124
2023-05-18T00:25:45.442Z,5.6855
2023-05-18T00:26:47.319Z,5.7129
2023-05-18T00:27:49.860Z,5.6386
2023-05-18T00:28:52.398Z,5.6463
2023-05-18T00:29:54.909Z,5.6976
2023-05-18T00:30:56.799Z,5.7796
2023-05-18T00:31:59.932Z,5.8487
2023-05-18T00:34:02.280Z,5.6348
2023-05-18T00:35:04.118Z,5.6500
2023-05-18T00:36:06.224Z,5.5238
2023-05-18T00:37:08.362Z,5.3806
2023-05-18T00:38:10.275Z,5.2135
2023-05-18T00:44:19.218Z,4.9908
2023-05-18T00:45:21.045Z,5.1122
2023-05-18T00:46:23.000Z,4.9915
2023-05-18T00:47:24.846Z,4.9285
2023-05-18T00:48:26.744Z,5.2115
2023-05-18T00:52:36.062Z,4.9037
2023-05-18T00:53:38.611Z,4.7963
2023-05-18T00:55:42.877Z,4.8300
2023-05-18T00:56:45.472Z,4.7424
2023-05-18T00:57:48.153Z,4.7767
2023-05-18T00:58:50.092Z,4.8488
2023-05-18T00:59:52.670Z,4.7303
2023-05-18T01:00:55.356Z,4.6632
2023-05-18T01:01:57.922Z,4.5546
2023-05-18T01:03:00.189Z,4.5482
2023-05-18T01:04:02.338Z,4.4425
2023-05-18T01:05:05.022Z,4.4606
2023-05-18T01:06:05.263Z,4.4411
2023-05-18T01:07:08.082Z,4.4254
2023-05-18T01:08:10.021Z,4.5477
2023-05-18T01:09:12.226Z,4.5504
2023-05-18T01:10:14.724Z,4.4725
2023-05-18T01:11:16.687Z,4.5187
2023-05-18T01:12:18.571Z,4.5139
2023-05-18T01:13:21.081Z,4.4640
2023-05-18T01:14:23.619Z,4.3385
2023-05-18T01:15:25.554Z,4.3596
2023-05-18T01:17:29.202Z,4.3297
2023-05-18T01:18:31.690Z,4.2794
2023-05-18T01:30:56.177Z,5.0811
2023-05-18T01:31:58.100Z,4.9985
2023-05-18T01:33:00.071Z,4.9931
2023-05-18T01:34:02.078Z,5.1887
2023-05-18T01:35:04.557Z,5.2574
2023-05-18T01:36:07.114Z,5.2207
2023-05-18T01:37:09.730Z,5.2650
2023-05-18T01:38:11.653Z,5.3591
2023-05-18T01:39:14.129Z,5.2735
2023-05-18T01:40:16.723Z,5.2118
2023-05-18T01:41:19.265Z,5.3629
2023-05-18T01:42:21.917Z,5.4566
2023-05-18T01:43:23.870Z,5.5108
2023-05-18T01:45:27.761Z,5.4617
2023-05-18T01:46:29.817Z,5.4360
2023-05-18T01:47:31.800Z,5.5141
2023-05-18T01:48:34.405Z,5.4289
2023-05-18T01:49:36.976Z,5.5511
2023-05-18T01:50:38.897Z,5.5915
2023-05-18T01:52:43.744Z,5.5431
2023-05-18T01:57:50.549Z,5.6367
2023-05-18T01:58:53.136Z,5.7429
2023-05-18T01:59:55.035Z,5.6929
2023-05-18T02:03:00.703Z,5.6924
2023-05-18T02:04:03.116Z,5.7234
2023-05-18T02:05:05.095Z,5.7407
2023-05-18T02:07:08.838Z,5.8014
2023-05-18T02:08:10.791Z,5.7946
2023-05-18T02:09:13.858Z,5.8642
2023-05-18T02:11:14.637Z,5.8881
2023-05-18T02:12:16.650Z,5.8010
2023-05-18T02:13:18.565Z,5.7109
2023-05-18T02:14:20.482Z,5.5929
2023-05-18T02:15:22.678Z,5.5801
2023-05-18T02:16:26.168Z,5.5021
2023-05-18T02:19:29.602Z,5.5937
2023-05-18T02:20:32.180Z,5.5208
2023-05-18T02:21:34.823Z,5.5823
2023-05-18T02:22:37.335Z,5.6521
2023-05-18T02:23:39.235Z,5.5660
2023-05-18T02:24:41.786Z,5.6182
2023-05-18T02:25:44.345Z,5.7064
2023-05-18T02:26:46.295Z,5.6233
2023-05-18T02:27:48.192Z,5.5788
2023-05-18T02:28:50.724Z,5.5769
2023-05-18T02:29:53.269Z,5.4990
2023-05-18T02:30:56.024Z,5.5136
2023-05-18T02:31:58.670Z,5.4449
2023-05-18T02:33:00.665Z,5.3550
2023-05-18T02:34:02.562Z,5.3092
2023-05-18T02:35:05.301Z,5.3090
2023-05-18T02:36:05.996Z,5.2065
2023-05-18T02:38:07.368Z,5.1251
2023-05-18T02:39:09.277Z,5.2195
2023-05-18T02:40:12.748Z,5.5379
2023-05-18T02:41:15.479Z,5.5601
2023-05-18T02:42:17.375Z,5.5018
2023-05-18T02:43:19.670Z,5.4349
2023-05-18T02:44:21.637Z,5.4142
2023-05-18T02:45:23.881Z,5.3901
2023-05-18T02:46:26.038Z,5.2413
2023-05-18T02:48:30.565Z,5.2895
2023-05-18T02:49:33.188Z,5.2092
2023-05-18T02:50:35.736Z,5.1094
2023-05-18T02:51:38.291Z,5.0703
2023-05-18T02:52:40.160Z,5.0318
2023-05-18T02:54:44.595Z,4.8778
2023-05-18T03:04:01.437Z,4.5286
2023-05-18T03:05:04.022Z,4.5546
2023-05-18T03:08:10.004Z,4.4895
2023-05-18T03:09:11.939Z,4.4294
2023-05-18T03:10:14.728Z,4.3291
2023-05-18T03:11:16.658Z,4.3297
2023-05-18T03:12:19.295Z,4.2842
2023-05-18T03:13:21.877Z,4.4078
2023-05-18T03:14:24.444Z,4.4261
2023-05-18T03:15:27.023Z,4.5275
2023-05-18T03:18:33.327Z,4.3751
2023-05-18T03:19:35.500Z,4.4001
2023-05-18T03:20:37.457Z,4.3823
2023-05-18T03:23:43.686Z,4.3372
2023-05-18T03:24:45.622Z,4.2894
2023-05-18T03:25:48.616Z,4.1960
2023-05-18T03:26:50.620Z,4.1474
2023-05-18T03:28:54.938Z,4.2059
2023-05-18T03:29:57.493Z,4.2137
2023-05-18T03:31:00.293Z,4.1763
2023-05-18T03:32:02.197Z,4.1018
2023-05-18T03:33:04.307Z,3.9951
2023-05-18T03:34:06.910Z,3.9644
2023-05-18T03:35:09.404Z,3.8980
2023-05-18T03:36:11.973Z,4.0359
2023-05-18T03:37:13.895Z,3.9862
2023-05-18T03:38:16.601Z,4.0339
2023-05-18T03:39:19.118Z,4.2021
2023-05-18T03:40:21.033Z,4.2164
2023-05-18T03:41:22.963Z,4.3067
2023-05-18T03:42:25.567Z,4.4139
2023-05-18T03:43:27.481Z,4.3435
2023-05-18T03:44:29.426Z,4.2358
2023-05-18T03:45:31.470Z,4.1764
2023-05-18T03:46:33.481Z,4.0492
2023-05-18T03:47:35.460Z,4.0884
2023-05-18T03:48:37.357Z,4.0927
2023-05-18T03:51:43.169Z,3.8860
2023-05-18T03:52:45.668Z,3.9653
2023-05-18T03:53:48.237Z,3.9679
2023-05-18T03:54:50.180Z,4.0192
2023-05-18T03:56:55.157Z,4.1315
2023-05-18T03:57:57.782Z,4.1349
2023-05-18T03:59:00.287Z,4.1427
2023-05-18T04:00:02.274Z,4.1310
2023-05-18T04:01:04.991Z,4.1628
2023-05-18T04:02:07.531Z,4.1099
2023-05-18T04:03:10.184Z,4.1853
2023-05-18T04:04:12.938Z,4.2009
2023-05-18T04:05:14.852Z,4.1999
2023-05-18T04:06:17.097Z,4.2952
2023-05-18T04:07:18.993Z,4.3683
2023-05-18T04:08:20.917Z,4.4502
2023-05-18T04:09:22.804Z,4.5093
2023-05-18T04:10:24.716Z,4.5355
2023-05-18T04:11:26.628Z,4.6146
2023-05-18T04:12:29.227Z,4.6400
2023-05-18T04:13:31.150Z,4.6323
2023-05-18T04:14:33.736Z,4.6569
2023-05-18T04:15:36.385Z,4.6189
2023-05-18T04:16:38.351Z,4.5881
2023-05-18T04:17:40.307Z,4.6391
2023-05-18T04:18:42.804Z,4.6462
2023-05-18T04:19:45.384Z,4.6929
2023-05-18T04:20:48.016Z,4.6938
2023-05-18T04:21:50.995Z,4.7481
2023-05-18T04:22:52.934Z,4.8021
2023-05-18T04:23:54.977Z,4.7462
2023-05-18T04:25:59.593Z,4.9620
2023-05-18T04:27:01.558Z,5.0225
2023-05-18T04:28:04.509Z,4.9765
2023-05-18T04:29:07.163Z,5.0031
2023-05-18T04:30:09.062Z,5.0590
2023-05-18T04:31:11.202Z,5.0161
2023-05-18T04:33:15.601Z,5.2005
2023-05-18T04:34:17.546Z,5.2118
2023-05-18T04:35:19.459Z,5.1862
2023-05-18T04:36:21.809Z,5.1277
2023-05-18T04:37:24.421Z,5.1719
2023-05-18T04:38:26.949Z,5.2018
2023-05-18T04:39:29.561Z,5.2337
2023-05-18T04:40:31.491Z,5.2642
2023-05-18T04:42:36.018Z,5.3756
2023-05-18T04:43:38.151Z,5.3667
2023-05-18T04:44:40.770Z,5.2777
2023-05-18T04:45:42.748Z,5.3489
2023-05-18T04:46:44.685Z,5.3971
2023-05-18T04:47:47.502Z,5.4714
2023-05-18T04:48:49.408Z,5.4311
2023-05-18T04:49:51.336Z,5.3688
2023-05-18T04:50:53.243Z,5.7193
2023-05-18T04:51:55.168Z,5.7843
2023-05-18T04:52:57.939Z,5.8353
2023-05-18T04:54:00.044Z,5.8017
2023-05-18T04:56:03.759Z,5.9701
2023-05-18T04:57:06.209Z,6.0900
2023-05-18T04:58:08.178Z,6.1440
2023-05-18T05:00:12.465Z,6.3344
2023-05-18T05:01:15.150Z,6.3961
2023-05-18T05:02:17.649Z,6.4900
2023-05-18T05:03:19.664Z,6.4738
2023-05-18T05:04:22.255Z,6.5211
2023-05-18T05:05:24.185Z,6.6133
2023-05-18T05:06:26.119Z,6.7517
2023-05-18T05:08:29.806Z,6.9029
2023-05-18T05:09:31.710Z,7.0667
2023-05-18T05:11:35.873Z,7.6986
2023-05-18T05:12:37.809Z,8.2241
2023-05-18T05:14:41.440Z,8.7780
2023-05-18T05:15:44.166Z,9.3975
2023-05-18T05:16:46.695Z,9.6930
2023-05-18T05:17:50.024Z,9.6629
2023-05-18T05:19:51.673Z,8.9708
2023-05-18T05:20:54.250Z,8.8766
2023-05-18T05:21:56.184Z,8.9759
2023-05-18T05:25:05.130Z,10.3051
2023-05-18T05:26:05.679Z,10.0321
2023-05-18T05:35:23.080Z,10.0427
2023-05-18T05:36:25.867Z,8.9924
2023-05-18T05:37:27.762Z,8.8612
2023-05-18T05:38:29.655Z,8.8017
2023-05-18T05:39:31.582Z,9.3706
2023-05-18T05:40:34.653Z,9.5529
2023-05-18T05:42:36.710Z,8.7919
2023-05-18T05:43:39.224Z,8.9443
2023-05-18T05:44:41.118Z,8.9755
2023-05-18T05:45:44.181Z,8.8809
2023-05-18T05:46:46.863Z,8.7247
2023-05-18T05:47:49.399Z,8.5250
2023-05-18T05:48:51.833Z,8.4747
2023-05-18T05:49:53.718Z,8.3065
2023-05-18T05:51:57.916Z,8.2521
2023-05-18T05:53:00.423Z,8.2975
2023-05-18T05:54:02.527Z,8.3599
2023-05-18T05:55:05.411Z,8.5746
2023-05-18T05:56:07.971Z,8.6524
2023-05-18T05:57:09.929Z,8.5922
2023-05-18T05:58:11.801Z,8.6880
2023-05-18T05:59:13.735Z,8.9307
2023-05-18T06:00:15.592Z,8.9403
2023-05-18T06:01:17.701Z,8.7109
2023-05-18T06:02:19.622Z,9.0445
2023-05-18T06:03:21.647Z,9.2490
2023-05-18T06:04:23.928Z,9.3085
2023-05-18T06:05:25.823Z,8.9953
2023-05-18T06:07:29.552Z,8.9246
2023-05-18T06:08:31.471Z,8.7526
2023-05-18T06:09:33.382Z,8.3162
2023-05-18T06:10:35.885Z,8.1978
2023-05-18T06:11:38.579Z,8.0902
2023-05-18T06:12:40.441Z,8.1179
2023-05-18T06:13:43.183Z,8.0182
2023-05-18T06:14:45.741Z,8.1090
2023-05-18T06:15:47.658Z,8.3817
2023-05-18T06:16:49.592Z,8.4670
2023-05-18T06:17:51.626Z,8.4005
2023-05-18T06:18:53.593Z,8.4015
2023-05-18T06:19:56.135Z,8.4676
2023-05-18T06:20:58.658Z,8.3412
2023-05-18T06:22:00.518Z,8.5986
2023-05-18T06:23:02.966Z,8.4680
2023-05-18T06:24:05.423Z,8.4245
2023-05-18T06:27:10.685Z,8.5175
2023-05-18T06:28:12.581Z,8.5429
2023-05-18T06:31:18.012Z,8.4170
2023-05-18T06:33:21.691Z,8.4237
2023-05-18T06:34:23.650Z,8.3593
2023-05-18T06:35:26.219Z,8.4292
2023-05-18T06:36:28.153Z,8.3494
2023-05-18T06:37:30.731Z,8.4535
2023-05-18T06:38:33.298Z,8.3375
2023-05-18T06:39:35.893Z,8.3768
2023-05-18T06:40:38.461Z,8.5606
2023-05-18T06:41:40.392Z,8.4708
2023-05-18T06:42:42.926Z,8.7027
2023-05-18T06:43:45.446Z,8.8051
2023-05-18T06:44:47.374Z,8.7382
2023-05-18T06:45:49.307Z,8.6083
2023-05-18T06:46:51.789Z,8.6386
2023-05-18T06:47:53.746Z,8.9217
2023-05-18T06:48:56.188Z,9.0585
2023-05-18T06:51:00.511Z,8.9588
2023-05-18T06:52:03.033Z,9.2070
2023-05-18T06:53:05.605Z,9.5234
2023-05-18T06:54:08.427Z,9.2964
2023-05-18T06:55:10.346Z,9.4959
2023-05-18T06:56:12.917Z,9.9498
2023-05-18T06:57:15.753Z,9.9282
2023-05-18T06:58:17.664Z,9.8010
2023-05-18T06:59:19.551Z,9.9306
2023-05-18T07:00:21.770Z,9.6943
2023-05-18T07:01:24.358Z,9.4854
2023-05-18T07:02:26.330Z,9.4887
2023-05-18T07:03:28.967Z,9.8157
2023-05-18T07:04:31.609Z,9.5088
2023-05-18T07:05:37.010Z,9.5879
2023-05-18T07:06:35.337Z,9.7538
2023-05-18T07:07:37.995Z,9.9355
2023-05-18T07:08:40.613Z,10.0187
2023-05-18T07:09:42.497Z,11.6274
2023-05-18T07:10:45.043Z,12.3120
2023-05-18T07:11:46.944Z,11.3682
2023-05-18T07:12:49.381Z,12.2946
2023-05-18T07:13:51.283Z,12.6229
2023-05-18T07:15:53.728Z,11.5600
2023-05-18T07:16:56.170Z,11.9013
2023-05-18T07:17:58.857Z,12.0487
2023-05-18T07:19:01.416Z,11.1903
2023-05-18T07:20:03.918Z,11.2746
2023-05-18T07:21:06.437Z,11.5492
2023-05-18T07:22:08.342Z,12.1701
2023-05-18T07:23:10.867Z,11.5901
2023-05-18T07:24:12.785Z,11.0257
2023-05-18T07:25:14.686Z,11.5476
2023-05-18T07:26:16.614Z,11.8402
2023-05-18T07:27:19.124Z,11.4833
2023-05-18T07:28:22.002Z,12.2569
2023-05-18T07:40:44.981Z,12.1251
2023-05-18T07:41:46.856Z,11.6078
2023-05-18T07:42:48.756Z,11.1752
2023-05-18T07:43:51.178Z,11.3195
2023-05-18T07:44:53.692Z,11.1489
2023-05-18T07:45:56.268Z,10.8691
2023-05-18T07:46:58.948Z,10.7034
2023-05-18T07:48:00.984Z,10.5230
2023-05-18T07:49:02.840Z,11.0257
2023-05-18T07:50:04.745Z,11.1524
2023-05-18T07:51:06.791Z,11.6328
2023-05-18T07:52:08.662Z,11.9167
2023-05-18T07:54:12.967Z,13.2862
2023-05-18T07:55:14.912Z,12.7404
2023-05-18T07:57:19.176Z,13.1665
2023-05-18T07:58:21.736Z,12.9499
2023-05-18T07:59:23.624Z,12.5040
2023-05-18T08:00:25.551Z,11.5050
2023-05-18T08:01:27.436Z,11.5113
2023-05-18T08:02:32.859Z,11.5765
2023-05-18T08:03:30.973Z,11.9137
2023-05-18T08:04:32.881Z,12.0216
2023-05-18T08:05:34.787Z,12.1731
2023-05-18T08:06:37.231Z,12.4024
2023-05-18T08:07:40.166Z,12.3538
2023-05-18T08:13:47.445Z,12.1606
2023-05-18T08:14:49.883Z,11.7371
2023-05-18T08:16:03.156Z,11.7362
2023-05-18T08:16:54.516Z,11.6146
2023-05-18T08:22:03.441Z,11.5747
2023-05-18T08:23:06.388Z,12.2605
2023-05-18T08:25:08.328Z,15.1319
2023-05-18T08:35:26.979Z,13.3655
2023-05-18T08:36:30.263Z,13.8613
2023-05-18T08:42:49.230Z,15.6184
2023-05-18T08:43:41.856Z,16.0132
2023-05-18T08:44:43.685Z,15.1556
2023-05-18T08:45:46.198Z,15.3080
2023-05-18T08:46:48.630Z,14.4390
2023-05-18T08:47:50.491Z,14.0191
2023-05-18T08:48:53.134Z,14.1881
2023-05-18T08:49:55.813Z,14.7603
2023-05-18T08:50:57.658Z,13.3566
2023-05-18T08:51:59.505Z,13.4787
2023-05-18T08:53:01.335Z,13.3516
2023-05-18T08:54:03.850Z,13.2699
2023-05-18T08:55:06.336Z,12.7246
2023-05-18T08:56:08.186Z,12.4025
2023-05-18T08:57:10.036Z,12.3316
2023-05-18T08:58:12.585Z,11.8774
2023-05-18T08:59:15.078Z,12.5638
2023-05-18T09:00:17.551Z,13.2987
2023-05-18T09:01:19.470Z,14.1024
2023-05-18T09:02:21.389Z,14.1811
2023-05-18T09:03:23.253Z,14.3347
2023-05-18T09:04:25.794Z,14.1072
2023-05-18T09:05:28.474Z,13.7062
2023-05-18T09:06:30.350Z,12.7690
2023-05-18T09:07:32.868Z,12.5359
2023-05-18T09:08:35.378Z,12.1890
2023-05-18T09:09:38.286Z,12.1524
2023-05-18T09:19:54.593Z,11.7136
2023-05-18T09:20:56.492Z,11.6491
2023-05-18T09:21:58.938Z,11.8240
2023-05-18T09:23:00.755Z,11.7197
2023-05-18T09:24:02.669Z,11.5375
2023-05-18T09:25:04.725Z,11.6114
2023-05-18T09:26:06.582Z,11.6968
2023-05-18T09:27:08.448Z,11.9635
2023-05-18T09:28:10.486Z,12.0853
2023-05-18T09:29:12.310Z,12.0446
2023-05-18T09:30:14.354Z,11.9176
2023-05-18T09:31:16.218Z,11.9212
2023-05-18T09:32:18.089Z,11.9057
2023-05-18T09:33:19.998Z,12.1046
2023-05-18T09:34:21.864Z,11.9867
2023-05-18T09:35:23.722Z,12.0858
2023-05-18T09:36:25.579Z,12.1185
2023-05-18T09:37:27.497Z,12.4807
2023-05-18T09:38:30.291Z,12.3547
2023-05-18T09:39:32.769Z,12.1761
2023-05-18T09:41:37.242Z,11.9440
2023-05-18T09:42:39.687Z,11.8142
2023-05-18T09:43:41.677Z,11.8217
2023-05-18T09:45:45.153Z,11.7992
2023-05-18T09:48:51.573Z,11.8514
2023-05-18T09:49:53.398Z,11.6381
2023-05-18T09:50:55.232Z,11.9303
2023-05-18T09:51:57.095Z,12.2606
2023-05-18T09:52:58.928Z,12.1033
2023-05-18T09:54:01.602Z,12.2155
2023-05-18T09:55:03.474Z,12.7401
2023-05-18T09:56:05.347Z,12.8960
2023-05-18T09:57:11.113Z,13.0482
2023-05-18T09:58:08.610Z,13.4260
2023-05-18T09:59:11.119Z,13.7944
2023-05-18T10:00:13.675Z,13.7293
2023-05-18T10:01:15.598Z,13.4324
2023-05-18T10:12:34.981Z,12.4273
2023-05-18T10:13:36.817Z,12.8674
2023-05-18T10:14:38.733Z,13.0489
2023-05-18T10:15:40.593Z,12.7891
2023-05-18T10:16:42.515Z,12.5460
2023-05-18T10:17:45.121Z,12.5570
2023-05-18T10:18:47.716Z,12.7707
2023-05-18T10:19:49.541Z,13.0601
2023-05-18T10:20:51.366Z,13.0870
2023-05-18T10:21:53.855Z,13.0236
2023-05-18T10:22:56.406Z,13.2753
2023-05-18T10:23:58.212Z,13.3541
2023-05-18T10:25:00.037Z,13.5210
2023-05-18T10:27:04.547Z,14.3459
2023-05-18T10:38:22.798Z,17.4105
2023-05-18T10:39:24.663Z,17.3793
2023-05-18T10:40:27.809Z,16.3942
2023-05-18T10:42:29.560Z,16.3423
2023-05-18T10:44:30.103Z,14.9161
2023-05-18T10:45:31.894Z,14.6615
2023-05-18T10:47:35.543Z,14.7312
2023-05-18T10:48:37.970Z,14.1853
2023-05-18T10:52:01.598Z,13.7236
2023-05-18T10:52:43.720Z,13.2984
2023-05-18T10:53:46.206Z,13.3700
2023-05-18T10:55:50.308Z,12.5804
2023-05-18T10:56:52.894Z,12.5499
2023-05-18T10:58:57.477Z,12.6520
2023-05-18T10:59:59.270Z,12.9015
2023-05-18T11:01:01.080Z,12.8789
2023-05-18T11:04:07.725Z,13.0182
2023-05-18T11:05:10.277Z,13.0430
2023-05-18T11:06:12.739Z,13.3261
2023-05-18T11:07:14.766Z,13.1140
2023-05-18T11:08:17.555Z,13.2236
2023-05-18T11:09:20.334Z,13.6294
2023-05-18T11:10:22.751Z,13.6976
2023-05-18T11:12:27.057Z,13.8085
2023-05-18T11:13:28.891Z,13.8894
2023-05-18T11:14:30.870Z,14.2248
2023-05-18T11:15:32.697Z,14.3857
2023-05-18T11:16:35.292Z,14.6185
2023-05-18T11:17:37.533Z,14.4775
2023-05-18T11:18:39.414Z,14.4259
2023-05-18T11:19:41.223Z,14.9505
2023-05-18T11:20:43.257Z,15.2228
2023-05-18T11:21:45.104Z,15.2468
2023-05-18T11:22:46.959Z,15.2054
2023-05-18T11:24:52.026Z,14.7604
2023-05-18T11:30:14.134Z,14.9289
2023-05-18T11:30:59.959Z,14.9958
2023-05-18T11:34:22.862Z,14.7086
2023-05-18T11:35:08.107Z,14.4511
2023-05-18T11:36:10.485Z,14.7121
2023-05-18T11:37:12.904Z,14.7194
2023-05-18T11:38:14.704Z,14.7312
2023-05-18T11:40:18.325Z,14.5575
2023-05-18T11:41:20.775Z,14.4842
2023-05-18T11:42:22.668Z,14.4654
2023-05-18T11:43:24.524Z,14.5590
2023-05-18T11:44:26.604Z,14.2564
2023-05-18T11:45:28.566Z,13.8788
2023-05-18T11:46:31.195Z,13.4787
2023-05-18T11:47:33.130Z,13.7819
2023-05-18T11:48:35.071Z,13.9339
2023-05-18T11:49:37.974Z,13.7015
2023-05-18T11:55:45.582Z,13.3195
2023-05-18T11:56:47.700Z,13.6417
2023-05-18T11:57:50.249Z,13.7659
2023-05-18T11:58:52.128Z,14.1711
2023-05-18T11:59:54.021Z,14.1553
2023-05-18T12:00:56.577Z,14.1258
2023-05-18T12:01:59.125Z,14.0820
2023-05-18T12:03:01.176Z,14.2713
2023-05-18T12:04:03.286Z,13.8162
2023-05-18T12:05:05.148Z,13.8603
2023-05-18T12:06:07.042Z,14.0622
2023-05-18T12:07:08.884Z,14.1192
2023-05-18T12:08:10.739Z,14.2187
2023-05-18T12:09:13.295Z,14.1824
2023-05-18T12:18:29.269Z,14.0447
2023-05-18T12:19:31.928Z,14.1110
2023-05-18T12:20:34.588Z,13.8151
2023-05-18T12:21:37.252Z,13.9349
2023-05-18T12:22:39.133Z,13.9857
2023-05-18T12:23:41.483Z,14.0988
2023-05-18T12:24:44.056Z,13.9513
2023-05-18T12:25:46.713Z,13.9336
2023-05-18T12:26:49.218Z,14.0412
2023-05-18T12:27:51.120Z,14.2158
2023-05-18T12:29:55.638Z,14.3119
2023-05-18T12:30:57.545Z,14.1529
2023-05-18T12:32:00.170Z,14.1174
2023-05-18T12:33:02.124Z,14.2234
2023-05-18T12:34:04.022Z,14.2393
2023-05-18T12:36:07.650Z,14.2818
2023-05-18T12:37:10.376Z,13.9644
2023-05-18T12:38:13.169Z,13.9578
2023-05-18T12:39:15.684Z,14.1166
2023-05-18T12:40:18.287Z,14.1394
2023-05-18T12:41:20.160Z,14.2508
2023-05-18T12:42:22.202Z,14.2442
2023-05-18T12:43:24.751Z,14.1492
2023-05-18T12:44:27.253Z,14.1990
2023-05-18T12:45:29.268Z,14.1290
2023-05-18T12:47:33.154Z,13.9671
2023-05-18T12:48:35.739Z,14.0560
2023-05-18T12:49:37.619Z,13.8618
2023-05-18T12:50:39.512Z,13.7942
2023-05-18T12:52:43.532Z,14.0299
2023-05-18T12:53:45.401Z,14.1779
2023-05-18T12:55:49.592Z,14.2737
2023-05-18T12:56:52.068Z,14.1749
2023-05-18T12:57:53.947Z,13.8510
2023-05-18T12:58:55.835Z,14.0742
2023-05-18T12:59:58.291Z,13.9264
2023-05-18T13:01:01.010Z,13.6306
2023-05-18T13:02:02.941Z,13.8581
2023-05-18T13:03:04.993Z,13.9451
2023-05-18T13:04:07.702Z,13.9437
2023-05-18T13:05:10.315Z,14.0574
2023-05-18T13:06:12.859Z,14.0439
2023-05-18T13:07:14.785Z,14.1207
2023-05-18T13:09:18.410Z,13.9906
2023-05-18T13:10:20.827Z,14.0781
2023-05-18T13:11:22.719Z,14.0915
2023-05-18T13:12:24.572Z,14.0987
2023-05-18T13:13:27.092Z,13.9855
2023-05-18T13:14:29.607Z,13.8556
2023-05-18T13:15:32.364Z,14.0941
2023-05-18T13:24:49.091Z,14.5440
2023-05-18T13:25:50.966Z,14.4723
2023-05-18T13:27:55.735Z,14.6387
2023-05-18T13:28:58.276Z,14.4354
2023-05-18T13:31:01.888Z,14.5501
2023-05-18T13:32:03.853Z,14.5009
2023-05-18T13:33:05.808Z,14.3099
2023-05-18T13:34:07.720Z,14.2245
2023-05-18T13:35:09.620Z,14.0930
2023-05-18T13:38:15.669Z,14.2668
2023-05-18T13:39:18.146Z,14.1386
2023-05-18T13:41:22.492Z,14.0532
2023-05-18T13:42:24.398Z,13.8727
2023-05-18T13:43:26.266Z,13.6678
2023-05-18T13:44:28.209Z,13.5790
2023-05-18T13:45:30.853Z,13.8281
2023-05-18T13:46:33.614Z,13.8006
2023-05-18T13:47:35.731Z,13.5958
2023-05-18T13:48:37.691Z,13.6951
2023-05-18T13:49:40.196Z,13.6965
2023-05-18T13:50:42.876Z,13.7397
2023-05-18T13:51:45.459Z,13.6433
2023-05-18T13:52:47.347Z,13.7252
2023-05-18T13:53:49.218Z,13.6487
2023-05-18T13:54:51.103Z,13.7291
2023-05-18T13:55:53.328Z,13.6795
2023-05-18T13:56:55.219Z,13.5616
2023-05-18T13:57:57.620Z,13.4976
2023-05-18T13:58:59.494Z,13.5149
2023-05-18T14:01:03.872Z,13.7779
2023-05-18T14:02:06.474Z,13.9162
2023-05-18T14:03:09.116Z,14.0574
2023-05-18T14:04:11.078Z,14.3385
2023-05-18T14:06:14.752Z,14.4063
2023-05-18T14:07:16.669Z,14.4109
2023-05-18T14:09:20.341Z,14.2977
2023-05-18T14:10:22.857Z,14.2139
2023-05-18T14:11:25.415Z,14.2477
2023-05-18T14:12:27.292Z,14.1197
2023-05-18T14:14:31.562Z,14.2769
2023-05-18T14:15:33.737Z,14.3598
2023-05-18T14:16:36.300Z,14.3806
2023-05-18T14:17:38.224Z,14.1464
2023-05-18T14:18:40.134Z,14.3612
2023-05-18T14:19:42.634Z,14.1358
2023-05-18T14:20:44.509Z,14.0781
2023-05-18T14:21:46.395Z,14.1002
2023-05-18T14:22:48.388Z,14.0374
2023-05-18T14:23:50.236Z,13.8013
2023-05-18T14:24:52.409Z,13.8642
2023-05-18T14:25:54.641Z,13.8847
2023-05-18T14:26:57.206Z,13.8786
2023-05-18T14:27:59.689Z,13.6517
2023-05-18T14:29:01.633Z,13.8879
2023-05-18T14:31:06.015Z,13.6427
2023-05-18T14:32:08.588Z,13.5574
2023-05-18T14:33:10.567Z,13.6580
2023-05-18T14:34:12.496Z,13.7394
2023-05-18T14:35:14.366Z,13.6046
2023-05-18T14:36:16.852Z,13.4450
2023-05-18T14:37:19.291Z,13.4236
2023-05-18T14:38:21.836Z,13.5320
2023-05-18T14:39:23.731Z,13.4539
2023-05-18T14:40:26.428Z,13.3598
2023-05-18T14:41:28.435Z,13.3073
2023-05-18T14:42:30.343Z,13.4647
2023-05-18T14:43:32.281Z,13.4349
2023-05-18T14:44:34.179Z,13.6287
2023-05-18T14:45:36.094Z,13.6224
2023-05-18T14:46:38.060Z,13.6244
2023-05-18T14:47:40.275Z,13.6086
2023-05-18T14:48:42.788Z,13.5312
2023-05-18T14:49:44.730Z,13.6426
2023-05-18T14:51:49.081Z,13.5679
2023-05-18T14:52:51.647Z,13.5172
2023-05-18T14:53:54.201Z,13.4538
2023-05-18T14:54:56.092Z,13.4011
2023-05-18T14:57:00.366Z,13.3649
2023-05-18T14:58:02.875Z,13.4779
2023-05-18T14:59:05.425Z,13.3945
2023-05-18T15:00:07.353Z,13.4564
2023-05-18T15:02:11.834Z,13.3327
2023-05-18T15:03:14.466Z,13.4923
2023-05-18T15:04:17.103Z,13.3576
2023-05-18T15:05:18.980Z,13.4213
2023-05-18T15:06:20.931Z,13.3669
2023-05-18T15:07:22.814Z,13.3139
2023-05-18T15:09:27.115Z,13.4688
2023-05-18T15:10:29.207Z,13.4390
2023-05-18T15:11:31.286Z,13.2204
2023-05-18T15:12:33.805Z,13.3205
2023-05-18T15:13:36.314Z,13.2561
2023-05-18T15:14:39.018Z,13.2481
2023-05-18T15:15:41.142Z,13.1985
2023-05-18T15:16:43.840Z,13.1378
2023-05-18T15:17:45.951Z,13.0688
2023-05-18T15:18:47.876Z,13.1477
2023-05-18T15:19:49.861Z,13.1777
2023-05-18T15:20:52.327Z,13.1460
2023-05-18T15:21:54.929Z,13.1398
2023-05-18T15:22:56.858Z,13.0921
2023-05-18T15:23:58.732Z,13.0078
2023-05-18T15:25:00.708Z,13.0588
2023-05-18T15:26:02.590Z,13.1023
2023-05-18T15:27:04.505Z,13.1114
2023-05-18T15:28:06.349Z,13.1078
2023-05-18T15:29:08.217Z,13.1604
2023-05-18T15:30:10.115Z,13.1409
2023-05-18T15:31:12.616Z,13.0524
2023-05-18T15:32:14.522Z,13.1988
2023-05-18T15:35:21.208Z,13.1978
2023-05-18T15:36:23.646Z,13.1778
2023-05-18T15:37:26.310Z,13.0386
2023-05-18T15:38:29.706Z,13.1050
2023-05-18T15:39:28.775Z,13.2698
2023-05-18T15:41:33.442Z,13.2602
2023-05-18T15:49:45.907Z,13.0969
2023-05-18T15:50:48.454Z,13.1090
2023-05-18T15:51:50.892Z,13.1516
2023-05-18T15:52:53.496Z,13.1996
2023-05-18T15:53:56.389Z,13.1642
2023-05-18T15:55:59.345Z,13.2321
2023-05-18T15:56:59.396Z,13.3000
2023-05-18T15:58:01.329Z,13.2483
2023-05-18T15:59:03.806Z,13.2963
2023-05-18T16:00:06.390Z,13.1771
2023-05-18T16:01:09.235Z,13.1463
2023-05-18T16:02:11.173Z,13.2816
2023-05-18T16:04:16.087Z,13.3504
2023-05-18T16:05:17.987Z,13.2359
2023-05-18T16:06:21.210Z,13.2555
2023-05-18T16:08:25.775Z,13.2574
2023-05-18T16:10:27.544Z,13.0667
2023-05-18T16:13:33.984Z,13.0264
2023-05-18T16:16:39.817Z,12.9566
2023-05-18T16:17:41.811Z,12.8731
2023-05-18T16:18:43.744Z,12.9114
2023-05-18T16:19:45.643Z,12.8513
2023-05-18T16:20:48.636Z,12.7998
2023-05-18T16:34:09.740Z,12.5653
2023-05-18T16:35:11.878Z,12.5806
2023-05-18T16:36:14.674Z,12.5724
2023-05-18T16:37:17.260Z,12.5090
2023-05-18T16:38:19.841Z,12.5298
2023-05-18T16:41:24.137Z,12.5753
2023-05-18T16:43:28.695Z,12.5619
2023-05-18T16:44:31.520Z,12.5021
2023-05-18T16:48:37.789Z,12.5662
2023-05-18T16:49:40.398Z,12.5551
2023-05-18T16:50:42.336Z,12.5811
2023-05-18T16:51:44.326Z,12.5182
2023-05-18T16:52:46.371Z,12.4957
2023-05-18T16:54:50.412Z,12.5263
2023-05-18T16:55:52.407Z,12.5366
2023-05-18T17:01:07.614Z,12.4751
2023-05-18T17:02:06.276Z,12.5341
2023-05-18T17:03:08.674Z,12.5619
2023-05-18T17:04:11.016Z,12.5535
2023-05-18T17:05:13.454Z,12.4970
2023-05-18T17:06:16.415Z,12.4580
2023-05-18T17:09:20.375Z,12.4695
2023-05-18T17:10:33.343Z,12.4255
2023-05-18T17:21:43.163Z,12.3404
2023-05-18T17:22:45.908Z,12.3181
2023-05-18T17:23:48.105Z,12.3184